sensor_id;sensor_type;location;lat;lon;timestamp;pressure;altitude;pressure_sealevel;temperature;humidity
75166;BME280;63747;48.042;10.088;2023-09-18T00:02:07;94767.97;;;15.50;67.99
75166;BME280;63747;48.042;10.088;2023-09-18T00:05:08;94752.44;;;15.41;67.86
75166;BME280;63747;48.042;10.088;2023-09-18T00:08:09;94760.81;;;15.44;67.73
75166;BME280;63747;48.042;10.088;2023-09-18T00:11:10;94752.78;;;15.51;67.57
75166;BME280;63747;48.042;10.088;2023-09-18T00:14:12;94756.94;;;15.47;67.42
75166;BME280;63747;48.042;10.088;2023-09-18T00:17:12;94751.66;;;15.34;67.71
75166;BME280;63747;48.042;10.088;2023-09-18T00:20:13;94753.25;;;15.41;67.50
75166;BME280;63747;48.042;10.088;2023-09-18T00:23:16;94756.72;;;15.48;67.00
75166;BME280;63747;48.042;10.088;2023-09-18T00:26:17;94740.94;;;15.40;67.29
75166;BME280;63747;48.042;10.088;2023-09-18T00:29:18;94735.59;;;15.40;67.21
75166;BME280;63747;48.042;10.088;2023-09-18T00:32:19;94733.34;;;15.37;67.21
75166;BME280;63747;48.042;10.088;2023-09-18T00:35:20;94730.06;;;15.35;67.21
75166;BME280;63747;48.042;10.088;2023-09-18T00:38:23;94722.91;;;15.29;67.42
75166;BME280;63747;48.042;10.088;2023-09-18T00:41:23;94716.97;;;15.27;67.86
75166;BME280;63747;48.042;10.088;2023-09-18T00:44:24;94717.22;;;15.26;67.38
75166;BME280;63747;48.042;10.088;2023-09-18T00:47:26;94722.72;;;15.24;67.57
75166;BME280;63747;48.042;10.088;2023-09-18T00:50:27;94714.72;;;15.24;67.75
75166;BME280;63747;48.042;10.088;2023-09-18T00:53:28;94703.22;;;15.23;67.98
75166;BME280;63747;48.042;10.088;2023-09-18T00:56:28;94701.38;;;15.24;68.10
75166;BME280;63747;48.042;10.088;2023-09-18T00:59:29;94702.00;;;15.19;68.15
75166;BME280;63747;48.042;10.088;2023-09-18T01:02:31;94699.56;;;15.18;68.54
75166;BME280;63747;48.042;10.088;2023-09-18T01:05:32;94687.22;;;15.17;68.62
75166;BME280;63747;48.042;10.088;2023-09-18T01:08:33;94692.56;;;15.17;68.56
75166;BME280;63747;48.042;10.088;2023-09-18T01:11:36;94693.81;;;15.21;68.75
75166;BME280;63747;48.042;10.088;2023-09-18T01:15:19;94700.78;;;15.22;69.15
75166;BME280;63747;48.042;10.088;2023-09-18T01:18:23;94679.81;;;15.26;69.02
75166;BME280;63747;48.042;10.088;2023-09-18T01:21:23;94687.78;;;15.32;69.10
75166;BME280;63747;48.042;10.088;2023-09-18T01:24:24;94680.97;;;15.36;68.97
75166;BME280;63747;48.042;10.088;2023-09-18T01:27:25;94683.28;;;15.33;69.14
75166;BME280;63747;48.042;10.088;2023-09-18T01:30:25;94698.72;;;15.24;69.62
75166;BME280;63747;48.042;10.088;2023-09-18T01:33:27;94698.28;;;15.20;69.38
75166;BME280;63747;48.042;10.088;2023-09-18T01:36:29;94694.66;;;15.08;70.36
75166;BME280;63747;48.042;10.088;2023-09-18T01:39:31;94680.13;;;14.97;70.75
75166;BME280;63747;48.042;10.088;2023-09-18T01:42:33;94675.69;;;14.91;70.54
75166;BME280;63747;48.042;10.088;2023-09-18T01:45:35;94678.34;;;14.91;70.40
75166;BME280;63747;48.042;10.088;2023-09-18T01:48:36;94685.06;;;15.01;70.24
75166;BME280;63747;48.042;10.088;2023-09-18T01:51:38;94677.06;;;15.01;69.20
75166;BME280;63747;48.042;10.088;2023-09-18T01:54:38;94687.75;;;14.94;69.86
75166;BME280;63747;48.042;10.088;2023-09-18T01:57:39;94695.13;;;14.99;68.77
75166;BME280;63747;48.042;10.088;2023-09-18T02:00:42;94693.25;;;15.06;69.12
75166;BME280;63747;48.042;10.088;2023-09-18T02:03:42;94694.88;;;15.07;69.12
75166;BME280;63747;48.042;10.088;2023-09-18T02:06:44;94685.25;;;15.06;69.25
75166;BME280;63747;48.042;10.088;2023-09-18T02:09:44;94670.09;;;15.00;69.10
75166;BME280;63747;48.042;10.088;2023-09-18T02:12:45;94671.97;;;14.92;69.03
75166;BME280;63747;48.042;10.088;2023-09-18T02:15:46;94657.88;;;14.79;69.53
75166;BME280;63747;48.042;10.088;2023-09-18T02:18:47;94648.88;;;14.73;69.75
75166;BME280;63747;48.042;10.088;2023-09-18T02:21:48;94635.72;;;14.78;69.56
75166;BME280;63747;48.042;10.088;2023-09-18T02:24:48;94639.38;;;14.77;69.46
75166;BME280;63747;48.042;10.088;2023-09-18T02:27:50;94642.69;;;14.79;69.67
75166;BME280;63747;48.042;10.088;2023-09-18T02:30:51;94645.94;;;14.81;69.24
75166;BME280;63747;48.042;10.088;2023-09-18T02:33:52;94635.28;;;14.81;69.11
75166;BME280;63747;48.042;10.088;2023-09-18T02:36:52;94636.31;;;14.80;69.17
75166;BME280;63747;48.042;10.088;2023-09-18T02:39:53;94625.06;;;14.72;69.31
75166;BME280;63747;48.042;10.088;2023-09-18T02:42:54;94613.63;;;14.64;69.27
75166;BME280;63747;48.042;10.088;2023-09-18T02:45:54;94599.09;;;14.54;69.32
75166;BME280;63747;48.042;10.088;2023-09-18T02:48:55;94612.66;;;14.52;69.48
75166;BME280;63747;48.042;10.088;2023-09-18T02:51:56;94621.50;;;14.46;69.58
75166;BME280;63747;48.042;10.088;2023-09-18T02:54:56;94613.91;;;14.43;69.81
75166;BME280;63747;48.042;10.088;2023-09-18T02:57:57;94615.97;;;14.41;69.78
75166;BME280;63747;48.042;10.088;2023-09-18T03:00:59;94608.41;;;14.38;69.76
75166;BME280;63747;48.042;10.088;2023-09-18T03:04:00;94609.81;;;14.40;69.69
75166;BME280;63747;48.042;10.088;2023-09-18T03:07:01;94608.78;;;14.41;70.04
75166;BME280;63747;48.042;10.088;2023-09-18T03:10:02;94594.44;;;14.36;69.84
75166;BME280;63747;48.042;10.088;2023-09-18T03:13:05;94583.59;;;14.37;70.22
75166;BME280;63747;48.042;10.088;2023-09-18T03:16:06;94593.22;;;14.38;69.79
75166;BME280;63747;48.042;10.088;2023-09-18T03:19:07;94594.44;;;14.36;69.47
75166;BME280;63747;48.042;10.088;2023-09-18T03:22:08;94588.53;;;14.27;69.77
75166;BME280;63747;48.042;10.088;2023-09-18T03:25:08;94588.13;;;14.30;69.49
75166;BME280;63747;48.042;10.088;2023-09-18T03:28:10;94591.78;;;14.36;69.49
75166;BME280;63747;48.042;10.088;2023-09-18T03:31:10;94581.94;;;14.36;69.42
75166;BME280;63747;48.042;10.088;2023-09-18T03:34:11;94583.81;;;14.29;69.53
75166;BME280;63747;48.042;10.088;2023-09-18T03:37:12;94586.66;;;14.34;69.19
75166;BME280;63747;48.042;10.088;2023-09-18T03:40:13;94585.25;;;14.32;69.47
75166;BME280;63747;48.042;10.088;2023-09-18T03:43:14;94597.56;;;14.26;69.46
75166;BME280;63747;48.042;10.088;2023-09-18T03:46:14;94601.91;;;14.21;69.67
75166;BME280;63747;48.042;10.088;2023-09-18T03:49:15;94608.69;;;14.10;70.21
75166;BME280;63747;48.042;10.088;2023-09-18T03:52:16;94593.69;;;14.09;70.08
75166;BME280;63747;48.042;10.088;2023-09-18T03:55:17;94601.28;;;14.12;70.14
75166;BME280;63747;48.042;10.088;2023-09-18T03:58:17;94597.78;;;14.18;70.01
75166;BME280;63747;48.042;10.088;2023-09-18T04:01:18;94599.00;;;14.29;69.65
75166;BME280;63747;48.042;10.088;2023-09-18T04:04:19;94611.69;;;14.33;69.47
75166;BME280;63747;48.042;10.088;2023-09-18T04:07:20;94611.88;;;14.38;69.43
75166;BME280;63747;48.042;10.088;2023-09-18T04:10:20;94617.22;;;14.38;69.67
75166;BME280;63747;48.042;10.088;2023-09-18T04:13:23;94620.28;;;14.42;69.62
75166;BME280;63747;48.042;10.088;2023-09-18T04:16:23;94620.50;;;14.34;69.80
75166;BME280;63747;48.042;10.088;2023-09-18T04:19:24;94623.78;;;14.36;69.90
75166;BME280;63747;48.042;10.088;2023-09-18T04:22:25;94616.00;;;14.34;70.08
75166;BME280;63747;48.042;10.088;2023-09-18T04:25:25;94619.88;;;14.38;69.88
75166;BME280;63747;48.042;10.088;2023-09-18T04:28:26;94615.59;;;14.37;69.83
75166;BME280;63747;48.042;10.088;2023-09-18T04:31:27;94602.88;;;14.33;69.75
75166;BME280;63747;48.042;10.088;2023-09-18T04:34:28;94596.13;;;14.37;69.00
75166;BME280;63747;48.042;10.088;2023-09-18T04:37:29;94601.00;;;14.40;69.22
75166;BME280;63747;48.042;10.088;2023-09-18T04:40:29;94601.44;;;14.37;69.35
75166;BME280;63747;48.042;10.088;2023-09-18T04:43:33;94616.00;;;14.34;69.64
75166;BME280;63747;48.042;10.088;2023-09-18T04:46:37;94614.16;;;14.28;69.62
75166;BME280;63747;48.042;10.088;2023-09-18T04:49:38;94617.47;;;14.17;70.02
75166;BME280;63747;48.042;10.088;2023-09-18T04:52:39;94626.72;;;14.01;70.63
75166;BME280;63747;48.042;10.088;2023-09-18T04:55:41;94624.47;;;14.05;70.68
75166;BME280;63747;48.042;10.088;2023-09-18T04:58:41;94621.59;;;14.06;70.07
75166;BME280;63747;48.042;10.088;2023-09-18T05:01:42;94620.19;;;14.04;70.22
75166;BME280;63747;48.042;10.088;2023-09-18T05:04:44;94654.63;;;13.99;70.67
75166;BME280;63747;48.042;10.088;2023-09-18T05:07:45;94648.47;;;13.92;70.46
75166;BME280;63747;48.042;10.088;2023-09-18T05:10:45;94647.03;;;13.96;70.48
75166;BME280;63747;48.042;10.088;2023-09-18T05:13:47;94646.41;;;14.00;70.22
75166;BME280;63747;48.042;10.088;2023-09-18T05:16:49;94648.25;;;14.06;70.26
75166;BME280;63747;48.042;10.088;2023-09-18T05:19:50;94642.13;;;13.93;70.72
75166;BME280;63747;48.042;10.088;2023-09-18T05:22:51;94650.31;;;13.98;70.77
75166;BME280;63747;48.042;10.088;2023-09-18T05:25:55;94660.75;;;14.12;70.43
75166;BME280;63747;48.042;10.088;2023-09-18T05:28:56;94676.13;;;14.17;70.34
75166;BME280;63747;48.042;10.088;2023-09-18T05:31:57;94692.72;;;14.26;69.70
75166;BME280;63747;48.042;10.088;2023-09-18T05:34:58;94686.16;;;14.28;69.65
75166;BME280;63747;48.042;10.088;2023-09-18T05:38:05;94688.19;;;14.33;69.39
75166;BME280;63747;48.042;10.088;2023-09-18T05:41:06;94692.09;;;14.37;69.54
75166;BME280;63747;48.042;10.088;2023-09-18T05:44:06;94713.81;;;14.40;69.29
75166;BME280;63747;48.042;10.088;2023-09-18T05:47:07;94710.09;;;14.48;69.41
75166;BME280;63747;48.042;10.088;2023-09-18T05:50:09;94705.78;;;14.54;69.14
75166;BME280;63747;48.042;10.088;2023-09-18T05:53:10;94705.53;;;14.62;69.16
75166;BME280;63747;48.042;10.088;2023-09-18T05:56:11;94713.72;;;14.74;68.11
75166;BME280;63747;48.042;10.088;2023-09-18T05:59:12;94719.00;;;14.87;68.21
75166;BME280;63747;48.042;10.088;2023-09-18T06:02:12;94726.13;;;15.00;68.41
75166;BME280;63747;48.042;10.088;2023-09-18T06:05:13;94727.28;;;15.10;68.00
75166;BME280;63747;48.042;10.088;2023-09-18T06:08:16;94731.41;;;15.13;68.24
75166;BME280;63747;48.042;10.088;2023-09-18T06:11:16;94742.69;;;15.15;68.03
75166;BME280;63747;48.042;10.088;2023-09-18T06:14:17;94748.44;;;15.18;68.22
75166;BME280;63747;48.042;10.088;2023-09-18T06:17:18;94743.47;;;15.29;68.24
75166;BME280;63747;48.042;10.088;2023-09-18T06:20:19;94739.28;;;15.46;67.84
75166;BME280;63747;48.042;10.088;2023-09-18T06:23:19;94727.16;;;15.75;67.57
75166;BME280;63747;48.042;10.088;2023-09-18T06:26:20;94731.19;;;16.09;66.82
75166;BME280;63747;48.042;10.088;2023-09-18T06:29:21;94720.28;;;16.36;66.63
75166;BME280;63747;48.042;10.088;2023-09-18T06:32:22;94709.66;;;16.47;66.80
75166;BME280;63747;48.042;10.088;2023-09-18T06:35:23;94707.19;;;16.46;66.56
75166;BME280;63747;48.042;10.088;2023-09-18T06:38:23;94713.69;;;16.75;66.04
75166;BME280;63747;48.042;10.088;2023-09-18T06:41:24;94708.78;;;17.08;66.01
75166;BME280;63747;48.042;10.088;2023-09-18T06:44:25;94709.72;;;17.44;66.02
75166;BME280;63747;48.042;10.088;2023-09-18T06:47:25;94715.56;;;17.53;65.63
75166;BME280;63747;48.042;10.088;2023-09-18T06:50:26;94718.34;;;17.46;65.80
75166;BME280;63747;48.042;10.088;2023-09-18T06:53:27;94713.16;;;17.63;66.06
75166;BME280;63747;48.042;10.088;2023-09-18T06:56:28;94709.38;;;17.94;65.15
75166;BME280;63747;48.042;10.088;2023-09-18T06:59:29;94697.16;;;18.21;64.99
75166;BME280;63747;48.042;10.088;2023-09-18T07:02:30;94667.06;;;18.43;63.56
75166;BME280;63747;48.042;10.088;2023-09-18T07:05:30;94669.47;;;18.68;63.05
75166;BME280;63747;48.042;10.088;2023-09-18T07:08:31;94673.66;;;18.87;63.08
75166;BME280;63747;48.042;10.088;2023-09-18T07:11:33;94680.22;;;18.80;62.65
75166;BME280;63747;48.042;10.088;2023-09-18T07:14:34;94703.91;;;18.71;62.90
75166;BME280;63747;48.042;10.088;2023-09-18T07:17:35;94729.59;;;18.67;63.10
75166;BME280;63747;48.042;10.088;2023-09-18T07:20:36;94742.44;;;18.65;63.19
75166;BME280;63747;48.042;10.088;2023-09-18T07:23:36;94736.81;;;18.66;62.51
75166;BME280;63747;48.042;10.088;2023-09-18T07:29:37;94764.38;;;18.62;62.79
75166;BME280;63747;48.042;10.088;2023-09-18T07:32:39;94759.94;;;18.56;63.08
75166;BME280;63747;48.042;10.088;2023-09-18T07:35:40;94761.22;;;18.53;63.00
75166;BME280;63747;48.042;10.088;2023-09-18T07:38:41;94768.34;;;18.47;62.87
75166;BME280;63747;48.042;10.088;2023-09-18T07:41:43;94771.03;;;18.47;62.85
75166;BME280;63747;48.042;10.088;2023-09-18T07:44:43;94775.72;;;18.52;62.82
75166;BME280;63747;48.042;10.088;2023-09-18T07:47:44;94781.91;;;18.64;62.75
75166;BME280;63747;48.042;10.088;2023-09-18T07:50:45;94778.72;;;18.67;62.59
75166;BME280;63747;48.042;10.088;2023-09-18T07:53:46;94765.44;;;18.84;62.92
75166;BME280;63747;48.042;10.088;2023-09-18T07:56:46;94778.28;;;18.94;62.38
75166;BME280;63747;48.042;10.088;2023-09-18T07:59:47;94794.84;;;19.02;62.35
75166;BME280;63747;48.042;10.088;2023-09-18T08:02:48;94804.63;;;19.09;62.16
75166;BME280;63747;48.042;10.088;2023-09-18T08:05:52;94812.69;;;19.20;61.87
75166;BME280;63747;48.042;10.088;2023-09-18T08:08:52;94810.19;;;19.30;62.10
75166;BME280;63747;48.042;10.088;2023-09-18T08:11:53;94817.09;;;19.38;61.88
75166;BME280;63747;48.042;10.088;2023-09-18T08:14:55;94812.16;;;19.47;61.04
75166;BME280;63747;48.042;10.088;2023-09-18T08:17:58;94826.75;;;19.51;60.75
75166;BME280;63747;48.042;10.088;2023-09-18T08:20:59;94823.09;;;19.57;60.75
75166;BME280;63747;48.042;10.088;2023-09-18T08:24:00;94826.84;;;19.56;60.75
75166;BME280;63747;48.042;10.088;2023-09-18T08:27:01;94832.69;;;19.65;60.57
75166;BME280;63747;48.042;10.088;2023-09-18T08:30:01;94835.47;;;19.70;60.82
75166;BME280;63747;48.042;10.088;2023-09-18T08:33:02;94835.03;;;19.73;60.11
75166;BME280;63747;48.042;10.088;2023-09-18T08:36:03;94843.44;;;19.65;61.02
75166;BME280;63747;48.042;10.088;2023-09-18T08:39:04;94848.34;;;19.68;60.36
75166;BME280;63747;48.042;10.088;2023-09-18T08:42:09;94843.31;;;19.71;60.66
75166;BME280;63747;48.042;10.088;2023-09-18T08:45:15;94846.25;;;19.70;60.51
75166;BME280;63747;48.042;10.088;2023-09-18T08:48:21;94834.59;;;19.52;60.92
75166;BME280;63747;48.042;10.088;2023-09-18T08:51:22;94841.09;;;19.56;61.03
75166;BME280;63747;48.042;10.088;2023-09-18T08:54:24;94843.69;;;19.63;61.00
75166;BME280;63747;48.042;10.088;2023-09-18T08:57:25;94840.41;;;19.73;60.68
75166;BME280;63747;48.042;10.088;2023-09-18T09:00:28;94836.81;;;19.84;61.01
75166;BME280;63747;48.042;10.088;2023-09-18T09:03:29;94826.94;;;20.01;60.02
75166;BME280;63747;48.042;10.088;2023-09-18T09:06:30;94827.94;;;20.12;59.61
75166;BME280;63747;48.042;10.088;2023-09-18T09:09:31;94833.25;;;20.24;59.27
75166;BME280;63747;48.042;10.088;2023-09-18T09:15:49;94834.31;;;20.06;58.58
75166;BME280;63747;48.042;10.088;2023-09-18T09:18:50;94841.38;;;20.12;58.74
75166;BME280;63747;48.042;10.088;2023-09-18T09:21:51;94844.47;;;20.04;58.36
75166;BME280;63747;48.042;10.088;2023-09-18T09:24:53;94847.31;;;19.97;58.57
75166;BME280;63747;48.042;10.088;2023-09-18T09:27:54;94842.47;;;19.82;58.57
75166;BME280;63747;48.042;10.088;2023-09-18T09:31:00;94853.25;;;19.71;58.58
75166;BME280;63747;48.042;10.088;2023-09-18T09:34:05;94860.41;;;19.65;58.74
75166;BME280;63747;48.042;10.088;2023-09-18T09:37:06;94854.31;;;19.58;58.95
75166;BME280;63747;48.042;10.088;2023-09-18T09:40:08;94849.91;;;19.52;59.25
75166;BME280;63747;48.042;10.088;2023-09-18T09:43:10;94869.66;;;19.46;60.15
75166;BME280;63747;48.042;10.088;2023-09-18T09:46:17;94882.19;;;19.40;60.15
75166;BME280;63747;48.042;10.088;2023-09-18T09:49:18;94884.53;;;19.25;61.02
75166;BME280;63747;48.042;10.088;2023-09-18T09:52:24;94911.88;;;19.10;61.21
75166;BME280;63747;48.042;10.088;2023-09-18T09:55:29;94924.00;;;18.89;61.26
75166;BME280;63747;48.042;10.088;2023-09-18T09:58:30;94920.19;;;18.55;62.54
75166;BME280;63747;48.042;10.088;2023-09-18T10:01:31;94927.28;;;18.49;63.11
75166;BME280;63747;48.042;10.088;2023-09-18T10:04:32;94927.34;;;18.31;63.59
75166;BME280;63747;48.042;10.088;2023-09-18T10:07:37;94928.44;;;18.12;65.29
75166;BME280;63747;48.042;10.088;2023-09-18T10:10:44;94938.53;;;17.98;65.53
75166;BME280;63747;48.042;10.088;2023-09-18T10:16:53;94958.94;;;17.99;66.18
75166;BME280;63747;48.042;10.088;2023-09-18T10:20:07;94954.53;;;17.86;67.33
75166;BME280;63747;48.042;10.088;2023-09-18T10:23:17;94953.69;;;17.86;67.44
75166;BME280;63747;48.042;10.088;2023-09-18T10:26:25;94959.22;;;17.91;67.71
75166;BME280;63747;48.042;10.088;2023-09-18T10:29:30;94957.75;;;17.95;67.51
75166;BME280;63747;48.042;10.088;2023-09-18T10:32:32;94970.47;;;18.00;68.37
75166;BME280;63747;48.042;10.088;2023-09-18T10:35:34;94973.75;;;18.02;68.45
75166;BME280;63747;48.042;10.088;2023-09-18T10:38:36;94979.34;;;18.00;68.61
75166;BME280;63747;48.042;10.088;2023-09-18T10:41:39;94982.88;;;17.94;68.86
75166;BME280;63747;48.042;10.088;2023-09-18T10:44:41;94989.53;;;17.91;69.37
75166;BME280;63747;48.042;10.088;2023-09-18T10:47:43;94990.66;;;17.84;68.77
75166;BME280;63747;48.042;10.088;2023-09-18T10:50:48;94976.13;;;17.73;68.49
75166;BME280;63747;48.042;10.088;2023-09-18T10:53:49;94966.97;;;17.62;68.98
75166;BME280;63747;48.042;10.088;2023-09-18T10:56:50;94967.94;;;17.50;68.37
75166;BME280;63747;48.042;10.088;2023-09-18T10:59:54;94959.97;;;17.43;68.57
75166;BME280;63747;48.042;10.088;2023-09-18T11:03:11;94960.47;;;17.33;69.18
75166;BME280;63747;48.042;10.088;2023-09-18T11:06:12;94959.69;;;17.26;68.68
75166;BME280;63747;48.042;10.088;2023-09-18T11:09:23;94958.06;;;17.25;68.80
75166;BME280;63747;48.042;10.088;2023-09-18T11:12:43;94963.81;;;17.29;69.60
75166;BME280;63747;48.042;10.088;2023-09-18T11:15:44;94975.47;;;17.34;69.37
75166;BME280;63747;48.042;10.088;2023-09-18T11:18:45;94962.53;;;17.31;68.67
75166;BME280;63747;48.042;10.088;2023-09-18T11:21:46;94959.81;;;17.38;68.44
75166;BME280;63747;48.042;10.088;2023-09-18T11:24:47;94952.66;;;17.32;67.84
75166;BME280;63747;48.042;10.088;2023-09-18T11:27:54;94967.09;;;17.31;68.04
75166;BME280;63747;48.042;10.088;2023-09-18T11:30:58;94975.41;;;17.41;68.27
75166;BME280;63747;48.042;10.088;2023-09-18T11:34:11;94979.31;;;17.45;68.25
75166;BME280;63747;48.042;10.088;2023-09-18T11:37:21;94981.28;;;17.56;68.17
75166;BME280;63747;48.042;10.088;2023-09-18T11:40:33;94988.47;;;17.74;68.42
75166;BME280;63747;48.042;10.088;2023-09-18T11:43:38;94994.66;;;17.93;68.30
75166;BME280;63747;48.042;10.088;2023-09-18T11:46:47;94991.63;;;18.08;67.72
75166;BME280;63747;48.042;10.088;2023-09-18T11:49:54;95002.75;;;18.11;66.82
75166;BME280;63747;48.042;10.088;2023-09-18T11:52:58;95014.53;;;18.10;66.84
75166;BME280;63747;48.042;10.088;2023-09-18T11:55:58;95012.34;;;18.01;66.66
75166;BME280;63747;48.042;10.088;2023-09-18T11:58:59;94998.59;;;17.97;66.63
75166;BME280;63747;48.042;10.088;2023-09-18T12:02:05;94996.91;;;18.14;66.50
75166;BME280;63747;48.042;10.088;2023-09-18T12:05:14;94994.69;;;18.11;66.56
75166;BME280;63747;48.042;10.088;2023-09-18T12:08:15;94987.38;;;18.00;66.30
75166;BME280;63747;48.042;10.088;2023-09-18T12:11:17;94998.69;;;18.02;66.95
75166;BME280;63747;48.042;10.088;2023-09-18T12:14:20;94993.25;;;18.09;66.79
75166;BME280;63747;48.042;10.088;2023-09-18T12:17:21;94984.72;;;18.00;66.87
75166;BME280;63747;48.042;10.088;2023-09-18T12:20:22;94998.59;;;17.97;66.20
75166;BME280;63747;48.042;10.088;2023-09-18T12:23:22;94994.84;;;17.98;66.39
75166;BME280;63747;48.042;10.088;2023-09-18T12:26:24;94984.72;;;18.00;66.18
75166;BME280;63747;48.042;10.088;2023-09-18T12:29:26;94974.44;;;17.97;67.02
75166;BME280;63747;48.042;10.088;2023-09-18T12:32:27;94971.34;;;17.93;66.17
75166;BME280;63747;48.042;10.088;2023-09-18T12:35:30;94967.94;;;18.05;66.59
75166;BME280;63747;48.042;10.088;2023-09-18T12:38:31;94971.88;;;18.02;66.38
75166;BME280;63747;48.042;10.088;2023-09-18T12:41:32;94970.16;;;18.08;65.99
75166;BME280;63747;48.042;10.088;2023-09-18T12:44:33;94956.25;;;17.99;65.79
75166;BME280;63747;48.042;10.088;2023-09-18T12:47:35;94942.38;;;18.02;66.46
75166;BME280;63747;48.042;10.088;2023-09-18T12:50:39;94926.91;;;18.04;66.01
75166;BME280;63747;48.042;10.088;2023-09-18T12:53:40;94905.75;;;17.96;65.83
75166;BME280;63747;48.042;10.088;2023-09-18T12:56:41;94880.50;;;18.04;66.06
75166;BME280;63747;48.042;10.088;2023-09-18T12:59:41;94866.25;;;18.03;65.85
75166;BME280;63747;48.042;10.088;2023-09-18T13:02:44;94871.63;;;18.03;65.74
75166;BME280;63747;48.042;10.088;2023-09-18T13:05:45;94901.84;;;18.10;65.68
75166;BME280;63747;48.042;10.088;2023-09-18T13:08:47;94884.34;;;18.08;65.67
75166;BME280;63747;48.042;10.088;2023-09-18T13:11:56;94883.34;;;18.20;65.75
75166;BME280;63747;48.042;10.088;2023-09-18T13:15:02;94884.09;;;18.39;65.63
75166;BME280;63747;48.042;10.088;2023-09-18T13:18:10;94901.28;;;18.50;64.64
75166;BME280;63747;48.042;10.088;2023-09-18T13:21:12;94897.66;;;18.44;64.99
75166;BME280;63747;48.042;10.088;2023-09-18T13:24:27;94884.91;;;18.40;64.79
75166;BME280;63747;48.042;10.088;2023-09-18T13:27:28;94878.63;;;18.46;65.00
75166;BME280;63747;48.042;10.088;2023-09-18T13:30:29;94885.28;;;18.43;64.47
75166;BME280;63747;48.042;10.088;2023-09-18T13:33:31;94857.94;;;18.35;64.64
75166;BME280;63747;48.042;10.088;2023-09-18T13:36:34;94852.91;;;18.27;64.91
75166;BME280;63747;48.042;10.088;2023-09-18T13:39:35;94853.97;;;18.26;64.49
75166;BME280;63747;48.042;10.088;2023-09-18T13:42:37;94838.56;;;18.33;64.79
75166;BME280;63747;48.042;10.088;2023-09-18T13:45:38;94851.41;;;18.42;65.03
75166;BME280;63747;48.042;10.088;2023-09-18T13:48:39;94865.09;;;18.53;64.78
75166;BME280;63747;48.042;10.088;2023-09-18T13:51:40;94871.03;;;18.55;64.13
75166;BME280;63747;48.042;10.088;2023-09-18T13:54:40;94862.44;;;18.64;64.73
75166;BME280;63747;48.042;10.088;2023-09-18T13:57:41;94857.44;;;18.80;64.24
75166;BME280;63747;48.042;10.088;2023-09-18T14:00:42;94858.84;;;18.94;64.17
75166;BME280;63747;48.042;10.088;2023-09-18T14:03:43;94842.63;;;19.12;63.57
75166;BME280;63747;48.042;10.088;2023-09-18T14:06:45;94840.38;;;19.33;63.68
75166;BME280;63747;48.042;10.088;2023-09-18T14:09:45;94850.16;;;19.39;62.99
75166;BME280;63747;48.042;10.088;2023-09-18T14:12:46;94838.16;;;19.58;62.33
75166;BME280;63747;48.042;10.088;2023-09-18T14:15:47;94836.91;;;19.72;62.22
75166;BME280;63747;48.042;10.088;2023-09-18T14:18:47;94839.31;;;19.86;61.80
75166;BME280;63747;48.042;10.088;2023-09-18T14:21:48;94838.56;;;19.90;62.04
75166;BME280;63747;48.042;10.088;2023-09-18T14:24:52;94827.63;;;19.80;61.09
75166;BME280;63747;48.042;10.088;2023-09-18T14:27:53;94816.34;;;19.66;61.03
75166;BME280;63747;48.042;10.088;2023-09-18T14:30:53;94822.03;;;19.58;61.43
75166;BME280;63747;48.042;10.088;2023-09-18T14:33:54;94822.03;;;19.58;59.47
75166;BME280;63747;48.042;10.088;2023-09-18T14:36:56;94814.22;;;19.56;59.73
75166;BME280;63747;48.042;10.088;2023-09-18T14:39:57;94818.78;;;19.56;60.30
75166;BME280;63747;48.042;10.088;2023-09-18T14:42:57;94824.72;;;19.58;60.10
75166;BME280;63747;48.042;10.088;2023-09-18T14:45:58;94812.84;;;19.66;59.63
75166;BME280;63747;48.042;10.088;2023-09-18T14:48:59;94807.09;;;19.91;59.49
75166;BME280;63747;48.042;10.088;2023-09-18T14:52:01;94805.38;;;20.13;58.62
75166;BME280;63747;48.042;10.088;2023-09-18T14:55:01;94804.56;;;20.29;57.61
75166;BME280;63747;48.042;10.088;2023-09-18T14:58:05;94800.47;;;20.27;57.44
75166;BME280;63747;48.042;10.088;2023-09-18T15:01:06;94795.50;;;20.35;57.26
75166;BME280;63747;48.042;10.088;2023-09-18T15:04:07;94792.72;;;20.30;57.23
75166;BME280;63747;48.042;10.088;2023-09-18T15:07:09;94790.59;;;20.16;56.85
75166;BME280;63747;48.042;10.088;2023-09-18T15:10:10;94785.16;;;20.27;57.16
75166;BME280;63747;48.042;10.088;2023-09-18T15:13:11;94777.50;;;20.36;57.08
75166;BME280;63747;48.042;10.088;2023-09-18T15:16:13;94777.97;;;20.33;57.08
75166;BME280;63747;48.042;10.088;2023-09-18T15:19:14;94779.47;;;20.41;56.43
75166;BME280;63747;48.042;10.088;2023-09-18T15:22:16;94778.66;;;20.40;55.83
75166;BME280;63747;48.042;10.088;2023-09-18T15:25:17;94776.44;;;20.37;55.95
75166;BME280;63747;48.042;10.088;2023-09-18T15:28:18;94778.31;;;20.36;55.75
75166;BME280;63747;48.042;10.088;2023-09-18T15:31:18;94777.50;;;20.36;56.18
75166;BME280;63747;48.042;10.088;2023-09-18T15:34:19;94769.78;;;20.40;55.35
75166;BME280;63747;48.042;10.088;2023-09-18T15:37:20;94758.75;;;20.41;55.00
75166;BME280;63747;48.042;10.088;2023-09-18T15:40:21;94757.69;;;20.42;55.63
75166;BME280;63747;48.042;10.088;2023-09-18T15:43:25;94748.88;;;20.47;55.52
75166;BME280;63747;48.042;10.088;2023-09-18T15:46:26;94748.63;;;20.48;55.37
75166;BME280;63747;48.042;10.088;2023-09-18T15:49:27;94746.66;;;20.60;54.81
75166;BME280;63747;48.042;10.088;2023-09-18T15:52:31;94731.53;;;20.76;54.61
75166;BME280;63747;48.042;10.088;2023-09-18T15:55:32;94736.91;;;20.76;54.24
75166;BME280;63747;48.042;10.088;2023-09-18T15:58:32;94724.84;;;20.62;54.51
75166;BME280;63747;48.042;10.088;2023-09-18T16:01:35;94728.28;;;20.57;54.56